Uraga Maru — JD2163 — position and weather

sailwx.info

Track history (hours):
 
Tides and Currents Weather Stations Pressure Air Temp Water Temp Dewpoint Dewpoint Depression Visibility Wind Speed Wind Dir Waves Ship Positions

Uraga Maru

Last reported at 2015-May-25 02:33 UTC. Time now 2015-May-25 03:25 UTC.
Position N 35°14' E 139°45'.

Length 40 m; draft 2.8 m.

Type: Tug. MMSI: 431101119.

Date/timePositionNaut miles runAvg speedWind from/ knotsBaromVisibWave heightAir tempDewpointWater temp
2015-May-25 02:33N 35°14' E 139°45'6 6.2
2015-May-25 01:33N 35°20' E 139°42'5 4.8
2015-May-25 00:33N 35°24' E 139°39'2 1.6
2015-May-24 23:33N 35°23' E 139°40'0 0.0
2015-May-24 22:34N 35°23' E 139°40'5 5.3
2015-May-24 21:33N 35°24' E 139°47'1111.2
2015-May-24 20:33N 35°13' E 139°47'3 2.8
2015-May-24 19:32N 35°16' E 139°45'4 4.2
2015-May-24 18:33N 35°17' E 139°41'0 0.0
2015-May-24 17:33N 35°17' E 139°41'0 0.0
2015-May-24 16:30N 35°17' E 139°41'0 0.0
2015-May-24 15:32N 35°17' E 139°41'0 0.0
2015-May-24 14:29N 35°17' E 139°41'0 0.0
2015-May-24 13:33N 35°17' E 139°41'0 0.0
2015-May-24 12:31N 35°17' E 139°41'0 0.0
2015-May-24 11:33N 35°17' E 139°41'0 0.0
2015-May-24 10:31N 35°17' E 139°41'0 0.0
2015-May-24 09:33N 35°17' E 139°41'4 4.2
2015-May-24 08:33N 35°15' E 139°45'6 5.7
2015-May-24 07:33N 35°21' E 139°42'3 3.5
2015-May-24 06:34N 35°24' E 139°42'7 7.0
2015-May-24 05:33N 35°17' E 139°41'0 0.0
2015-May-24 04:33N 35°17' E 139°41'0 0.0
2015-May-24 03:29N 35°17' E 139°41'0 0.0
2015-May-24 02:29N 35°17' E 139°41'0 0.0
2015-May-24 01:33N 35°17' E 139°41'0 0.0
2015-May-24 00:33N 35°17' E 139°41'0 0.0
2015-May-23 23:33N 35°17' E 139°41'0 0.0
2015-May-23 22:33N 35°17' E 139°41'0 0.0
2015-May-23 21:33N 35°17' E 139°41'0 0.0
2015-May-23 20:31N 35°17' E 139°41'0 0.0
2015-May-23 19:33N 35°17' E 139°41'0 0.0
2015-May-23 18:33N 35°17' E 139°41'0 0.0
2015-May-23 17:33N 35°17' E 139°41'0 0.0
2015-May-23 16:33N 35°17' E 139°41'0 0.0
2015-May-23 15:34N 35°17' E 139°41'0 0.0
2015-May-23 14:33N 35°17' E 139°41'0 0.0
2015-May-23 13:33N 35°17' E 139°41'0 0.0
2015-May-23 12:33N 35°17' E 139°41'0 0.0
2015-May-23 11:33N 35°17' E 139°41'0 0.0
2015-May-23 10:24N 35°17' E 139°41'0 0.0
2015-May-23 09:30N 35°17' E 139°41'0 0.0
2015-May-23 08:33N 35°17' E 139°41'0 0.0
2015-May-23 07:33N 35°17' E 139°41'0 0.0
2015-May-23 06:33N 35°17' E 139°41'0 0.0
2015-May-23 05:33N 35°17' E 139°41'0 0.0
2015-May-23 04:33N 35°17' E 139°41'0 0.0
2015-May-23 03:33N 35°17' E 139°41'0 0.0
2015-May-23 02:33N 35°17' E 139°41'0 0.0
2015-May-23 01:33N 35°17' E 139°41'0 0.0
2015-May-23 00:33N 35°17' E 139°41'0 0.0
2015-May-22 23:33N 35°17' E 139°41'0 0.0
2015-May-22 22:32N 35°17' E 139°41'4 4.1
2015-May-22 21:33N 35°17' E 139°46'7 7.3
2015-May-22 20:33N 35°10' E 139°46'4 4.0
2015-May-22 19:33N 35°13' E 139°44'7 6.9
2015-May-22 18:33N 35°20' E 139°42'3 2.9
2015-May-22 17:34N 35°23' E 139°41'5 5.2
2015-May-22 16:30N 35°17' E 139°41'0 0.0
2015-May-22 15:30N 35°17' E 139°41'0 0.0
2015-May-22 14:31N 35°17' E 139°41'0 0.0
2015-May-22 13:33N 35°17' E 139°41'4 4.4
2015-May-22 12:34N 35°15' E 139°45'4 4.3
2015-May-22 11:32N 35°19' E 139°43'1 1.4
2015-May-22 10:33N 35°20' E 139°42'7 6.6
2015-May-22 09:31N 35°14' E 139°46'1111.6
2015-May-22 08:34N 35°25' E 139°42'2 2.1
2015-May-22 07:33N 35°27' E 139°42'0 0.0
2015-May-22 06:33N 35°27' E 139°42'0 0.0
2015-May-22 05:33N 35°27' E 139°42'0 0.0
2015-May-22 04:34N 35°27' E 139°42'0 0.0
2015-May-22 03:33N 35°27' E 139°42'0 0.2
2015-May-22 02:33N 35°27' E 139°42'7 6.7
2015-May-22 01:33N 35°21' E 139°45'1010.1
2015-May-22 00:34N 35°11' E 139°46'8 7.9
2015-May-21 23:34N 35°17' E 139°41'1 0.6
2015-May-21 22:15N 35°17' E 139°41'0 0.0
2015-May-21 21:14N 35°17' E 139°41'0 0.0
2015-May-21 20:33N 35°17' E 139°41'0 0.0
2015-May-21 17:24N 35°17' E 139°41'0 0.0
2015-May-21 16:32N 35°17' E 139°41'0 0.0
2015-May-21 15:32N 35°17' E 139°41'0 0.0
2015-May-21 14:34N 35°17' E 139°41'0 0.0
2015-May-21 13:25N 35°17' E 139°41'0 0.0
2015-May-21 12:23N 35°17' E 139°41'0 0.0
2015-May-21 11:31N 35°17' E 139°41'0 0.0
2015-May-21 08:29N 35°17' E 139°41'0 0.0
2015-May-21 07:34N 35°17' E 139°41'0 0.0
2015-May-21 06:29N 35°17' E 139°41'0 0.1
2015-May-21 04:05N 35°17' E 139°41'3 6.0
2015-May-21 03:33N 35°19' E 139°44'9 8.9
2015-May-21 02:34N 35°10' E 139°47'4 4.5
2015-May-21 01:33N 35°13' E 139°43'3 3.0
2015-May-21 00:33N 35°15' E 139°46'1111.4
2015-May-20 23:33N 35°26' E 139°46'1313.4
2015-May-20 22:33N 35°32' E 140°01'2 1.6
2015-May-20 21:33N 35°33' E 140°02'9 9.1
2015-May-20 20:33N 35°27' E 139°53'1212.4
2015-May-20 19:33N 35°18' E 139°43'2 2.3
2015-May-20 18:33N 35°17' E 139°41'0 0.0
2015-May-20 17:33N 35°17' E 139°41'0 0.0
2015-May-20 16:06N 35°17' E 139°41'0 0.0
2015-May-20 03:07N 35°17' E 139°41'5 8.5
2015-May-20 02:33N 35°14' E 139°45'7 6.7
2015-May-20 01:33N 35°20' E 139°42'4 4.1
2015-May-20 00:33N 35°24' E 139°39'5 4.6
2015-May-19 23:33N 35°20' E 139°42'3 3.0
2015-May-19 22:33N 35°17' E 139°41'0 0.0
2015-May-19 21:33N 35°17' E 139°41'0 0.0
2015-May-19 20:33N 35°17' E 139°41'0 0.0
2015-May-19 19:33N 35°17' E 139°41'0 0.0
2015-May-19 18:33N 35°17' E 139°41'0 0.0
2015-May-19 17:33N 35°17' E 139°41'0 0.0
2015-May-19 16:33N 35°17' E 139°41'0 0.0
2015-May-19 15:33N 35°17' E 139°41'0 0.0
2015-May-19 14:33N 35°17' E 139°41'0 0.0
2015-May-19 13:33N 35°17' E 139°41'0 0.0
2015-May-19 12:33N 35°17' E 139°41'0 0.0
2015-May-19 11:33N 35°17' E 139°41'0 0.0
2015-May-19 10:33N 35°17' E 139°41'0 0.0
2015-May-19 09:33N 35°17' E 139°41'0 0.0
2015-May-19 08:33N 35°17' E 139°41'0 0.0
2015-May-19 07:33N 35°17' E 139°41'0 0.0
2015-May-19 06:33N 35°17' E 139°41'0 0.0
2015-May-19 05:33N 35°17' E 139°41'0 0.0
2015-May-19 04:33N 35°17' E 139°41'0 0.0
2015-May-19 03:33N 35°17' E 139°41'0 0.0
2015-May-19 02:33N 35°17' E 139°41'5 5.2
2015-May-19 01:33N 35°22' E 139°42'1010.2
2015-May-19 00:34N 35°13' E 139°47'2 2.2
2015-May-18 23:33N 35°15' E 139°46'5 4.6
2015-May-18 22:33N 35°17' E 139°41'0 0.0
2015-May-18 21:31N 35°17' E 139°41'0 0.0
2015-May-18 20:33N 35°17' E 139°41'0 0.0
2015-May-18 19:27N 35°17' E 139°41'0 0.0
2015-May-18 18:31N 35°17' E 139°41'0 0.0
2015-May-18 17:31N 35°17' E 139°41'0 0.0
2015-May-18 16:32N 35°17' E 139°41'0 0.0
2015-May-18 15:33N 35°17' E 139°41'0 0.0
2015-May-18 14:29N 35°17' E 139°41'0 0.0
2015-May-18 13:27N 35°17' E 139°41'0 0.0
2015-May-18 12:29N 35°17' E 139°41'0 0.0
2015-May-18 11:32N 35°17' E 139°41'0 0.2
2015-May-18 10:32N 35°17' E 139°41'5 5.0
2015-May-18 09:33N 35°15' E 139°46'1211.7
2015-May-18 08:34N 35°26' E 139°42'1 0.9
2015-May-18 07:34N 35°27' E 139°42'0 0.0
2015-May-18 06:34N 35°27' E 139°42'0 0.0
2015-May-18 05:34N 35°27' E 139°42'0 0.0
2015-May-18 04:34N 35°27' E 139°42'0 0.0
2015-May-18 03:34N 35°27' E 139°42'3 3.0
2015-May-18 02:34N 35°26' E 139°45'1110.8
2015-May-18 01:33N 35°15' E 139°47'1 0.8
2015-May-18 00:23N 35°15' E 139°46'5 3.9
2015-May-17 23:12N 35°17' E 139°41'0 0.1
2015-May-17 22:33N 35°17' E 139°41'0 0.0
2015-May-17 21:25N 35°17' E 139°41'0 0.0
2015-May-17 17:19N 35°17' E 139°41'0 0.0
2015-May-17 14:29N 35°17' E 139°41'0 0.0
2015-May-17 13:05N 35°17' E 139°41'0 0.0
2015-May-17 12:33N 35°17' E 139°41'0 0.0
2015-May-17 11:25N 35°17' E 139°41'0 0.0
2015-May-17 10:19N 35°17' E 139°41'0 0.0
2015-May-17 08:06N 35°17' E 139°41'4 8.1
2015-May-17 07:33N 35°15' E 139°45'6 5.5
2015-May-17 06:34N 35°20' E 139°43'7 6.9
2015-May-17 05:33N 35°27' E 139°42'0 0.0
2015-May-17 04:34N 35°27' E 139°42'0 0.0
2015-May-17 03:34N 35°27' E 139°42'9 8.6
2015-May-17 02:33N 35°29' E 139°52'7 7.3
2015-May-17 01:34N 35°24' E 139°46'1211.7
2015-May-17 00:33N 35°12' E 139°47'5 5.1
2015-May-16 23:33N 35°17' E 139°44'3 2.7
2015-May-16 22:33N 35°17' E 139°41'0 0.0
2015-May-16 21:33N 35°17' E 139°41'0 0.0
2015-May-16 20:33N 35°17' E 139°41'0 0.0
2015-May-16 19:32N 35°17' E 139°41'0 0.0
2015-May-16 18:33N 35°17' E 139°41'0 0.0
2015-May-16 17:33N 35°17' E 139°41'0 0.0
2015-May-16 16:32N 35°17' E 139°41'0 0.0
2015-May-16 15:33N 35°17' E 139°41'0 0.0
2015-May-16 14:32N 35°17' E 139°41'0 0.0
2015-May-16 13:33N 35°17' E 139°41'0 0.0
2015-May-16 12:33N 35°17' E 139°41'0 0.0
2015-May-16 11:33N 35°17' E 139°41'0 0.0
2015-May-16 10:33N 35°17' E 139°41'0 0.0
2015-May-16 09:33N 35°17' E 139°41'0 0.0
2015-May-16 08:32N 35°17' E 139°41'0 0.0
2015-May-16 05:11N 35°17' E 139°41'0 0.0
2015-May-16 04:32N 35°17' E 139°41'0 0.0
2015-May-16 03:33N 35°17' E 139°41'0 0.0
2015-May-16 02:33N 35°17' E 139°41'0 0.0
2015-May-16 01:33N 35°17' E 139°41'0 0.0
2015-May-16 00:33N 35°17' E 139°41'2 1.9
2015-May-15 23:33N 35°18' E 139°39'2 2.2
2015-May-15 22:34N 35°19' E 139°42'4 4.1
2015-May-15 21:33N 35°16' E 139°45'1 1.3
2015-May-15 20:32N 35°15' E 139°46'1010.0
2015-May-15 19:33N 35°24' E 139°44'1 0.6
2015-May-15 18:33N 35°24' E 139°44'1 1.3
2015-May-15 17:33N 35°24' E 139°45'7 6.7
2015-May-15 16:33N 35°18' E 139°45'7 6.7
2015-May-15 15:33N 35°11' E 139°47'8 7.7
2015-May-15 14:33N 35°18' E 139°44'2 2.5
2015-May-15 13:34N 35°21' E 139°43'4 4.0
2015-May-15 12:31N 35°17' E 139°41'5 5.3
2015-May-15 11:33N 35°14' E 139°46'7 7.2
2015-May-15 10:34N 35°21' E 139°42'6 5.7
2015-May-15 09:34N 35°26' E 139°42'8 7.5
2015-May-15 08:33N 35°19' E 139°39'8 8.1
2015-May-15 07:34N 35°22' E 139°48'2 1.7
2015-May-15 06:33N 35°20' E 139°49'1 1.3
2015-May-15 05:33N 35°22' E 139°49'0 0.0
2015-May-15 04:33N 35°22' E 139°49'0 0.0
2015-May-15 03:33N 35°22' E 139°49'4 3.8
2015-May-15 02:33N 35°25' E 139°46'  
Track history (hours):
 
Tides and Currents Weather Stations Pressure Air Temp Water Temp Dewpoint Dewpoint Depression Visibility Wind Speed Wind Dir Waves Ship Positions

Uraga Maru

Last reported at 2015-May-25 02:33 UTC. Time now 2015-May-25 03:25 UTC.
Position N 35°14' E 139°45'.

Length 40 m; draft 2.8 m.

Type: Tug. MMSI: 431101119.

Date/timePositionNaut miles runAvg speedWind from/ knotsBaromVisibWave heightAir tempDewpointWater temp
2015-May-25 02:33N 35°14' E 139°45'6 6.2
2015-May-25 01:33N 35°20' E 139°42'5 4.8
2015-May-25 00:33N 35°24' E 139°39'2 1.6
2015-May-24 23:33N 35°23' E 139°40'0 0.0
2015-May-24 22:34N 35°23' E 139°40'5 5.3
2015-May-24 21:33N 35°24' E 139°47'1111.2
2015-May-24 20:33N 35°13' E 139°47'3 2.8
2015-May-24 19:32N 35°16' E 139°45'4 4.2
2015-May-24 18:33N 35°17' E 139°41'0 0.0
2015-May-24 17:33N 35°17' E 139°41'0 0.0
2015-May-24 16:30N 35°17' E 139°41'0 0.0
2015-May-24 15:32N 35°17' E 139°41'0 0.0
2015-May-24 14:29N 35°17' E 139°41'0 0.0
2015-May-24 13:33N 35°17' E 139°41'0 0.0
2015-May-24 12:31N 35°17' E 139°41'0 0.0
2015-May-24 11:33N 35°17' E 139°41'0 0.0
2015-May-24 10:31N 35°17' E 139°41'0 0.0
2015-May-24 09:33N 35°17' E 139°41'4 4.2
2015-May-24 08:33N 35°15' E 139°45'6 5.7
2015-May-24 07:33N 35°21' E 139°42'3 3.5
2015-May-24 06:34N 35°24' E 139°42'7 7.0
2015-May-24 05:33N 35°17' E 139°41'0 0.0
2015-May-24 04:33N 35°17' E 139°41'0 0.0
2015-May-24 03:29N 35°17' E 139°41'0 0.0
2015-May-24 02:29N 35°17' E 139°41'0 0.0
2015-May-24 01:33N 35°17' E 139°41'0 0.0
2015-May-24 00:33N 35°17' E 139°41'0 0.0
2015-May-23 23:33N 35°17' E 139°41'0 0.0
2015-May-23 22:33N 35°17' E 139°41'0 0.0
2015-May-23 21:33N 35°17' E 139°41'0 0.0
2015-May-23 20:31N 35°17' E 139°41'0 0.0
2015-May-23 19:33N 35°17' E 139°41'0 0.0
2015-May-23 18:33N 35°17' E 139°41'0 0.0
2015-May-23 17:33N 35°17' E 139°41'0 0.0
2015-May-23 16:33N 35°17' E 139°41'0 0.0
2015-May-23 15:34N 35°17' E 139°41'0 0.0
2015-May-23 14:33N 35°17' E 139°41'0 0.0
2015-May-23 13:33N 35°17' E 139°41'0 0.0
2015-May-23 12:33N 35°17' E 139°41'0 0.0
2015-May-23 11:33N 35°17' E 139°41'0 0.0
2015-May-23 10:24N 35°17' E 139°41'0 0.0
2015-May-23 09:30N 35°17' E 139°41'0 0.0
2015-May-23 08:33N 35°17' E 139°41'0 0.0
2015-May-23 07:33N 35°17' E 139°41'0 0.0
2015-May-23 06:33N 35°17' E 139°41'0 0.0
2015-May-23 05:33N 35°17' E 139°41'0 0.0
2015-May-23 04:33N 35°17' E 139°41'0 0.0
2015-May-23 03:33N 35°17' E 139°41'0 0.0
2015-May-23 02:33N 35°17' E 139°41'0 0.0
2015-May-23 01:33N 35°17' E 139°41'0 0.0
2015-May-23 00:33N 35°17' E 139°41'0 0.0
2015-May-22 23:33N 35°17' E 139°41'0 0.0
2015-May-22 22:32N 35°17' E 139°41'4 4.1
2015-May-22 21:33N 35°17' E 139°46'7 7.3
2015-May-22 20:33N 35°10' E 139°46'4 4.0
2015-May-22 19:33N 35°13' E 139°44'7 6.9
2015-May-22 18:33N 35°20' E 139°42'3 2.9
2015-May-22 17:34N 35°23' E 139°41'5 5.2
2015-May-22 16:30N 35°17' E 139°41'0 0.0
2015-May-22 15:30N 35°17' E 139°41'0 0.0
2015-May-22 14:31N 35°17' E 139°41'0 0.0
2015-May-22 13:33N 35°17' E 139°41'4 4.4
2015-May-22 12:34N 35°15' E 139°45'4 4.3
2015-May-22 11:32N 35°19' E 139°43'1 1.4
2015-May-22 10:33N 35°20' E 139°42'7 6.6
2015-May-22 09:31N 35°14' E 139°46'1111.6
2015-May-22 08:34N 35°25' E 139°42'2 2.1
2015-May-22 07:33N 35°27' E 139°42'0 0.0
2015-May-22 06:33N 35°27' E 139°42'0 0.0
2015-May-22 05:33N 35°27' E 139°42'0 0.0
2015-May-22 04:34N 35°27' E 139°42'0 0.0
2015-May-22 03:33N 35°27' E 139°42'0 0.2
2015-May-22 02:33N 35°27' E 139°42'7 6.7
2015-May-22 01:33N 35°21' E 139°45'1010.1
2015-May-22 00:34N 35°11' E 139°46'8 7.9
2015-May-21 23:34N 35°17' E 139°41'1 0.6
2015-May-21 22:15N 35°17' E 139°41'0 0.0
2015-May-21 21:14N 35°17' E 139°41'0 0.0
2015-May-21 20:33N 35°17' E 139°41'0 0.0
2015-May-21 17:24N 35°17' E 139°41'0 0.0
2015-May-21 16:32N 35°17' E 139°41'0 0.0
2015-May-21 15:32N 35°17' E 139°41'0 0.0
2015-May-21 14:34N 35°17' E 139°41'0 0.0
2015-May-21 13:25N 35°17' E 139°41'0 0.0
2015-May-21 12:23N 35°17' E 139°41'0 0.0
2015-May-21 11:31N 35°17' E 139°41'0 0.0
2015-May-21 08:29N 35°17' E 139°41'0 0.0
2015-May-21 07:34N 35°17' E 139°41'0 0.0
2015-May-21 06:29N 35°17' E 139°41'0 0.1
2015-May-21 04:05N 35°17' E 139°41'3 6.0
2015-May-21 03:33N 35°19' E 139°44'9 8.9
2015-May-21 02:34N 35°10' E 139°47'4 4.5
2015-May-21 01:33N 35°13' E 139°43'3 3.0
2015-May-21 00:33N 35°15' E 139°46'1111.4
2015-May-20 23:33N 35°26' E 139°46'1313.4
2015-May-20 22:33N 35°32' E 140°01'2 1.6
2015-May-20 21:33N 35°33' E 140°02'9 9.1
2015-May-20 20:33N 35°27' E 139°53'1212.4
2015-May-20 19:33N 35°18' E 139°43'2 2.3
2015-May-20 18:33N 35°17' E 139°41'0 0.0
2015-May-20 17:33N 35°17' E 139°41'0 0.0
2015-May-20 16:06N 35°17' E 139°41'0 0.0
2015-May-20 03:07N 35°17' E 139°41'5 8.5
2015-May-20 02:33N 35°14' E 139°45'7 6.7
2015-May-20 01:33N 35°20' E 139°42'4 4.1
2015-May-20 00:33N 35°24' E 139°39'5 4.6
2015-May-19 23:33N 35°20' E 139°42'3 3.0
2015-May-19 22:33N 35°17' E 139°41'0 0.0
2015-May-19 21:33N 35°17' E 139°41'0 0.0
2015-May-19 20:33N 35°17' E 139°41'0 0.0
2015-May-19 19:33N 35°17' E 139°41'0 0.0
2015-May-19 18:33N 35°17' E 139°41'0 0.0
2015-May-19 17:33N 35°17' E 139°41'0 0.0
2015-May-19 16:33N 35°17' E 139°41'0 0.0
2015-May-19 15:33N 35°17' E 139°41'0 0.0
2015-May-19 14:33N 35°17' E 139°41'0 0.0
2015-May-19 13:33N 35°17' E 139°41'0 0.0
2015-May-19 12:33N 35°17' E 139°41'0 0.0
2015-May-19 11:33N 35°17' E 139°41'0 0.0
2015-May-19 10:33N 35°17' E 139°41'0 0.0
2015-May-19 09:33N 35°17' E 139°41'0 0.0
2015-May-19 08:33N 35°17' E 139°41'0 0.0
2015-May-19 07:33N 35°17' E 139°41'0 0.0
2015-May-19 06:33N 35°17' E 139°41'0 0.0
2015-May-19 05:33N 35°17' E 139°41'0 0.0
2015-May-19 04:33N 35°17' E 139°41'0 0.0
2015-May-19 03:33N 35°17' E 139°41'0 0.0
2015-May-19 02:33N 35°17' E 139°41'5 5.2
2015-May-19 01:33N 35°22' E 139°42'1010.2
2015-May-19 00:34N 35°13' E 139°47'2 2.2
2015-May-18 23:33N 35°15' E 139°46'5 4.6
2015-May-18 22:33N 35°17' E 139°41'0 0.0
2015-May-18 21:31N 35°17' E 139°41'0 0.0
2015-May-18 20:33N 35°17' E 139°41'0 0.0
2015-May-18 19:27N 35°17' E 139°41'0 0.0
2015-May-18 18:31N 35°17' E 139°41'0 0.0
2015-May-18 17:31N 35°17' E 139°41'0 0.0
2015-May-18 16:32N 35°17' E 139°41'0 0.0
2015-May-18 15:33N 35°17' E 139°41'0 0.0
2015-May-18 14:29N 35°17' E 139°41'0 0.0
2015-May-18 13:27N 35°17' E 139°41'0 0.0
2015-May-18 12:29N 35°17' E 139°41'0 0.0
2015-May-18 11:32N 35°17' E 139°41'0 0.2
2015-May-18 10:32N 35°17' E 139°41'5 5.0
2015-May-18 09:33N 35°15' E 139°46'1211.7
2015-May-18 08:34N 35°26' E 139°42'1 0.9
2015-May-18 07:34N 35°27' E 139°42'0 0.0
2015-May-18 06:34N 35°27' E 139°42'0 0.0
2015-May-18 05:34N 35°27' E 139°42'0 0.0
2015-May-18 04:34N 35°27' E 139°42'0 0.0
2015-May-18 03:34N 35°27' E 139°42'3 3.0
2015-May-18 02:34N 35°26' E 139°45'1110.8
2015-May-18 01:33N 35°15' E 139°47'1 0.8
2015-May-18 00:23N 35°15' E 139°46'5 3.9
2015-May-17 23:12N 35°17' E 139°41'0 0.1
2015-May-17 22:33N 35°17' E 139°41'0 0.0
2015-May-17 21:25N 35°17' E 139°41'0 0.0
2015-May-17 17:19N 35°17' E 139°41'0 0.0
2015-May-17 14:29N 35°17' E 139°41'0 0.0
2015-May-17 13:05N 35°17' E 139°41'0 0.0
2015-May-17 12:33N 35°17' E 139°41'0 0.0
2015-May-17 11:25N 35°17' E 139°41'0 0.0
2015-May-17 10:19N 35°17' E 139°41'0 0.0
2015-May-17 08:06N 35°17' E 139°41'4 8.1
2015-May-17 07:33N 35°15' E 139°45'6 5.5
2015-May-17 06:34N 35°20' E 139°43'7 6.9
2015-May-17 05:33N 35°27' E 139°42'0 0.0
2015-May-17 04:34N 35°27' E 139°42'0 0.0
2015-May-17 03:34N 35°27' E 139°42'9 8.6
2015-May-17 02:33N 35°29' E 139°52'7 7.3
2015-May-17 01:34N 35°24' E 139°46'1211.7
2015-May-17 00:33N 35°12' E 139°47'5 5.1
2015-May-16 23:33N 35°17' E 139°44'3 2.7
2015-May-16 22:33N 35°17' E 139°41'0 0.0
2015-May-16 21:33N 35°17' E 139°41'0 0.0
2015-May-16 20:33N 35°17' E 139°41'0 0.0
2015-May-16 19:32N 35°17' E 139°41'0 0.0
2015-May-16 18:33N 35°17' E 139°41'0 0.0
2015-May-16 17:33N 35°17' E 139°41'0 0.0
2015-May-16 16:32N 35°17' E 139°41'0 0.0
2015-May-16 15:33N 35°17' E 139°41'0 0.0
2015-May-16 14:32N 35°17' E 139°41'0 0.0
2015-May-16 13:33N 35°17' E 139°41'0 0.0
2015-May-16 12:33N 35°17' E 139°41'0 0.0
2015-May-16 11:33N 35°17' E 139°41'0 0.0
2015-May-16 10:33N 35°17' E 139°41'0 0.0
2015-May-16 09:33N 35°17' E 139°41'0 0.0
2015-May-16 08:32N 35°17' E 139°41'0 0.0
2015-May-16 05:11N 35°17' E 139°41'0 0.0
2015-May-16 04:32N 35°17' E 139°41'0 0.0
2015-May-16 03:33N 35°17' E 139°41'0 0.0
2015-May-16 02:33N 35°17' E 139°41'0 0.0
2015-May-16 01:33N 35°17' E 139°41'0 0.0
2015-May-16 00:33N 35°17' E 139°41'2 1.9
2015-May-15 23:33N 35°18' E 139°39'2 2.2
2015-May-15 22:34N 35°19' E 139°42'4 4.1
2015-May-15 21:33N 35°16' E 139°45'1 1.3
2015-May-15 20:32N 35°15' E 139°46'1010.0
2015-May-15 19:33N 35°24' E 139°44'1 0.6
2015-May-15 18:33N 35°24' E 139°44'1 1.3
2015-May-15 17:33N 35°24' E 139°45'7 6.7
2015-May-15 16:33N 35°18' E 139°45'7 6.7
2015-May-15 15:33N 35°11' E 139°47'8 7.7
2015-May-15 14:33N 35°18' E 139°44'2 2.5
2015-May-15 13:34N 35°21' E 139°43'4 4.0
2015-May-15 12:31N 35°17' E 139°41'5 5.3
2015-May-15 11:33N 35°14' E 139°46'7 7.2
2015-May-15 10:34N 35°21' E 139°42'6 5.7
2015-May-15 09:34N 35°26' E 139°42'8 7.5
2015-May-15 08:33N 35°19' E 139°39'8 8.1
2015-May-15 07:34N 35°22' E 139°48'2 1.7
2015-May-15 06:33N 35°20' E 139°49'1 1.3
2015-May-15 05:33N 35°22' E 139°49'0 0.0
2015-May-15 04:33N 35°22' E 139°49'0 0.0
2015-May-15 03:33N 35°22' E 139°49'4 3.8
2015-May-15 02:33N 35°25' E 139°46'  

Dump ship's entire track history